Ora Direzione Vento Velocita' Vento Media Vento Raffica Max. Temperatura Wind Chill Pioggia Pressione
20:44:53.0225 °(SW)7.2 Kts6.0 Kts14.0 Kts19.7 °C19.7 °C0.0 mm1017.5 Hpa
20:24:36.0225 °(SW)7.2 Kts6.6 Kts14.0 Kts19.7 °C19.7 °C0.0 mm1017.6 Hpa
20:04:18.0225 °(SW)7.2 Kts6.6 Kts14.0 Kts19.8 °C19.8 °C0.0 mm1017.8 Hpa
19:44:02.0225 °(SW)8.6 Kts8.0 Kts14.0 Kts20.0 °C20.0 °C0.0 mm1017.7 Hpa
19:24:48.0225 °(SW)9.9 Kts8.6 Kts14.0 Kts20.3 °C20.3 °C0.0 mm1017.7 Hpa
19:04:24.0180 °(S)9.3 Kts8.6 Kts14.0 Kts20.5 °C20.5 °C0.0 mm1017.7 Hpa
18:44:01.0180 °(S)8.6 Kts7.2 Kts14.0 Kts20.6 °C20.6 °C0.0 mm1017.6 Hpa
18:24:48.0202 °(SSW)8.6 Kts8.0 Kts14.0 Kts20.7 °C20.7 °C0.0 mm1017.7 Hpa
18:04:31.0202 °(SSW)8.0 Kts7.2 Kts14.0 Kts20.8 °C20.8 °C0.0 mm1017.9 Hpa
17:44:14.0180 °(S)8.0 Kts7.2 Kts14.0 Kts20.8 °C20.8 °C0.0 mm1017.8 Hpa
17:23:48.0180 °(S)6.6 Kts6.0 Kts14.0 Kts20.9 °C20.9 °C0.0 mm1017.8 Hpa
17:04:36.0180 °(S)7.2 Kts6.6 Kts14.0 Kts20.9 °C20.9 °C0.0 mm1018.1 Hpa
16:44:13.0135 °(SE)8.6 Kts8.0 Kts14.0 Kts20.7 °C20.7 °C0.0 mm1018.2 Hpa
16:23:49.0135 °(SE)9.9 Kts8.6 Kts14.0 Kts20.7 °C20.7 °C0.0 mm1018.3 Hpa
16:04:38.0135 °(SE)10.5 Kts9.9 Kts14.0 Kts20.7 °C20.7 °C0.0 mm1018.4 Hpa
15:44:23.0135 °(SE)10.5 Kts9.9 Kts14.0 Kts20.8 °C20.8 °C0.0 mm1018.2 Hpa
15:24:04.0135 °(SE)11.3 Kts10.5 Kts14.0 Kts20.8 °C20.8 °C0.0 mm1018.2 Hpa
15:04:53.0135 °(SE)8.0 Kts7.2 Kts14.0 Kts21.2 °C21.2 °C0.0 mm1018.5 Hpa
14:43:45.0180 °(S)7.2 Kts6.6 Kts14.0 Kts21.7 °C21.7 °C0.0 mm1018.4 Hpa
14:23:51.0135 °(SE)11.3 Kts10.5 Kts14.0 Kts21.8 °C21.8 °C0.0 mm1018.3 Hpa